Time;durP1;ratioP1;P1;durP2;ratioP2;P2;SDS_P1;SDS_P2;PMS_P1;PMS_P2;Temp;Humidity;BMP_temperature;BMP_pressure;BME280_temperature;BME280_humidity;BME280_pressure;Samples;Min_cycle;Max_cycle;Signal;HPM_P1;HPM_P2
2023/10/26 00:00:02;;;;;;;0.90;0.80;;;13.80;99.90;;;;;;926762;150;27402;-77
2023/10/26 00:02:29;;;;;;;0.90;0.90;;;13.80;99.90;;;;;;928209;150;27387;-76
2023/10/26 00:04:55;;;;;;;0.62;0.62;;;13.80;99.90;;;;;;928252;150;27337;-80
2023/10/26 00:07:22;;;;;;;0.80;0.70;;;13.80;99.90;;;;;;927264;150;27453;-79
2023/10/26 00:09:49;;;;;;;0.80;0.80;;;13.80;99.90;;;;;;928361;150;27279;-79
2023/10/26 00:12:15;;;;;;;1.00;1.00;;;13.80;99.90;;;;;;927561;150;27387;-77
2023/10/26 00:14:42;;;;;;;0.60;0.60;;;13.80;99.90;;;;;;927180;150;27310;-79
2023/10/26 00:17:08;;;;;;;0.72;0.72;;;13.80;99.90;;;;;;927447;150;27466;-80
2023/10/26 00:19:36;;;;;;;1.02;0.93;;;13.80;99.90;;;;;;927164;150;27367;-80
2023/10/26 00:22:02;;;;;;;0.78;0.78;;;13.80;99.90;;;;;;936944;149;27374;-79
2023/10/26 00:24:28;;;;;;;0.85;0.85;;;13.80;99.90;;;;;;938746;149;27354;-80
2023/10/26 00:26:55;;;;;;;0.90;0.90;;;13.70;99.90;;;;;;940438;149;27884;-80
2023/10/26 00:29:21;;;;;;;0.80;0.80;;;13.70;99.90;;;;;;939752;149;27351;-79
2023/10/26 00:31:48;;;;;;;1.37;1.30;;;13.70;99.90;;;;;;939390;148;27309;-80
2023/10/26 00:34:14;;;;;;;1.10;1.10;;;13.70;99.90;;;;;;940231;149;27385;-79
2023/10/26 00:36:41;;;;;;;1.40;1.30;;;13.70;99.90;;;;;;943554;148;27304;-79
2023/10/26 00:39:08;;;;;;;1.35;1.25;;;13.70;99.90;;;;;;939770;149;27404;-79
2023/10/26 00:41:35;;;;;;;1.07;1.07;;;13.70;99.90;;;;;;939689;149;27428;-79
2023/10/26 00:44:01;;;;;;;1.40;1.30;;;13.70;99.90;;;;;;937970;149;27356;-80
2023/10/26 00:46:27;;;;;;;2.37;1.30;;;13.60;99.90;;;;;;939961;148;27389;-79
2023/10/26 00:48:54;;;;;;;1.30;1.20;;;13.60;99.90;;;;;;939474;149;27346;-79
2023/10/26 00:51:21;;;;;;;1.20;1.20;;;13.60;99.90;;;;;;939018;149;27841;-77
2023/10/26 00:53:47;;;;;;;1.20;1.20;;;13.60;99.90;;;;;;937958;148;27814;-79
2023/10/26 00:56:14;;;;;;;1.30;1.20;;;13.60;99.90;;;;;;939648;149;27361;-79
2023/10/26 00:58:40;;;;;;;1.12;1.12;;;13.60;99.90;;;;;;941576;149;27373;-79
2023/10/26 01:01:07;;;;;;;1.77;1.20;;;13.60;99.90;;;;;;940404;149;27376;-79
2023/10/26 01:03:33;;;;;;;1.23;1.23;;;13.60;99.90;;;;;;942519;149;27296;-76
2023/10/26 01:06:00;;;;;;;1.10;1.10;;;13.50;99.90;;;;;;940600;149;27337;-76
2023/10/26 01:08:27;;;;;;;1.10;1.10;;;13.50;99.90;;;;;;940658;149;27332;-77
2023/10/26 01:10:53;;;;;;;1.15;1.15;;;13.50;99.90;;;;;;937671;149;27335;-76
2023/10/26 01:13:20;;;;;;;1.37;1.30;;;13.50;99.90;;;;;;940790;149;27327;-74
2023/10/26 01:15:46;;;;;;;1.07;1.07;;;13.50;99.90;;;;;;940661;149;27397;-75
2023/10/26 01:18:13;;;;;;;1.15;1.15;;;13.50;99.90;;;;;;941030;149;27780;-74
2023/10/26 01:20:43;;;;;;;1.60;1.50;;;13.40;99.90;;;;;;939460;151;27382;-74
2023/10/26 01:23:09;;;;;;;1.85;1.30;;;13.40;99.90;;;;;;939994;149;27382;-74
2023/10/26 01:25:36;;;;;;;1.25;1.20;;;13.30;99.90;;;;;;938848;149;27341;-74
2023/10/26 01:28:04;;;;;;;1.50;1.40;;;13.30;99.90;;;;;;938362;149;27346;-74
2023/10/26 01:30:31;;;;;;;1.45;1.37;;;13.20;99.90;;;;;;938138;149;27307;-74
2023/10/26 01:32:56;;;;;;;1.30;1.30;;;13.20;99.90;;;;;;939202;149;27305;-74
2023/10/26 01:35:22;;;;;;;1.90;1.37;;;13.10;99.90;;;;;;942952;149;27375;-74
2023/10/26 01:37:49;;;;;;;1.40;1.30;;;13.00;99.90;;;;;;942337;149;27309;-74
2023/10/26 01:40:15;;;;;;;1.20;1.20;;;13.00;99.90;;;;;;940188;149;27281;-74
2023/10/26 01:42:42;;;;;;;0.90;0.90;;;12.90;99.90;;;;;;939487;149;27448;-76
2023/10/26 01:45:09;;;;;;;1.47;1.37;;;12.80;99.90;;;;;;941357;149;27423;-74
2023/10/26 01:47:35;;;;;;;1.60;1.50;;;12.70;99.90;;;;;;940335;149;27322;-76
2023/10/26 01:50:02;;;;;;;2.95;1.27;;;12.70;99.90;;;;;;940035;149;27389;-74
2023/10/26 01:52:28;;;;;;;1.30;1.20;;;12.60;99.90;;;;;;926897;151;27465;-74
2023/10/26 01:54:55;;;;;;;1.47;1.17;;;12.50;99.90;;;;;;922539;152;27359;-74
2023/10/26 01:57:22;;;;;;;1.40;1.40;;;12.50;99.90;;;;;;941204;149;27396;-74
2023/10/26 01:59:48;;;;;;;1.17;1.17;;;12.50;99.90;;;;;;940888;149;27400;-74
2023/10/26 02:02:15;;;;;;;2.05;1.52;;;12.50;99.90;;;;;;924216;151;27370;-78
2023/10/26 02:04:41;;;;;;;1.60;1.33;;;12.40;99.90;;;;;;939521;149;27401;-74
2023/10/26 02:07:08;;;;;;;1.60;1.50;;;12.50;99.90;;;;;;920385;152;27331;-75
2023/10/26 02:09:34;;;;;;;1.53;1.47;;;12.40;99.90;;;;;;942361;149;27376;-78
2023/10/26 02:12:01;;;;;;;1.67;1.57;;;12.40;99.90;;;;;;940687;149;27813;-77
2023/10/26 02:14:28;;;;;;;1.60;1.50;;;12.40;99.90;;;;;;939027;149;27484;-74
2023/10/26 02:16:54;;;;;;;1.30;1.30;;;12.50;99.90;;;;;;942160;148;27313;-74
2023/10/26 02:19:21;;;;;;;1.50;1.40;;;12.40;99.90;;;;;;938604;149;27352;-74
2023/10/26 02:21:47;;;;;;;1.70;1.57;;;12.40;99.90;;;;;;935304;149;27352;-76
2023/10/26 02:24:14;;;;;;;1.82;1.60;;;12.40;99.90;;;;;;926988;150;27388;-76
2023/10/26 02:26:41;;;;;;;1.60;1.50;;;12.40;99.90;;;;;;929765;150;27405;-79
2023/10/26 02:29:07;;;;;;;1.97;1.83;;;12.40;99.90;;;;;;927985;150;27933;-79
2023/10/26 02:31:34;;;;;;;1.70;1.60;;;12.50;99.90;;;;;;927845;150;27500;-80
2023/10/26 02:34:00;;;;;;;2.47;2.07;;;12.50;99.90;;;;;;927101;150;27362;-76
2023/10/26 02:36:27;;;;;;;2.30;2.10;;;12.50;99.90;;;;;;931705;150;27381;-80
2023/10/26 02:38:53;;;;;;;2.33;2.13;;;12.40;99.90;;;;;;927683;150;27472;-80
2023/10/26 02:41:20;;;;;;;2.03;1.93;;;12.40;99.90;;;;;;925688;150;27373;-80
2023/10/26 02:43:47;;;;;;;2.50;2.30;;;12.40;99.90;;;;;;927425;150;27434;-79
2023/10/26 02:46:13;;;;;;;2.40;2.00;;;12.50;99.90;;;;;;928404;150;27820;-79
2023/10/26 02:48:40;;;;;;;2.23;2.00;;;12.50;99.90;;;;;;927094;150;27331;-79
2023/10/26 02:51:06;;;;;;;2.45;2.25;;;12.50;99.90;;;;;;929401;150;27489;-79
2023/10/26 02:53:33;;;;;;;2.22;2.12;;;12.50;99.90;;;;;;927029;150;27424;-76
2023/10/26 02:56:00;;;;;;;2.23;2.07;;;12.60;99.90;;;;;;925543;150;27366;-80
2023/10/26 02:58:26;;;;;;;2.20;2.10;;;12.60;99.90;;;;;;926841;150;27480;-76
2023/10/26 03:00:55;;;;;;;2.40;2.30;;;12.60;99.90;;;;;;925959;150;27402;-79
2023/10/26 03:03:22;;;;;;;3.00;2.23;;;12.60;99.90;;;;;;926084;152;27413;-79
2023/10/26 03:05:49;;;;;;;2.30;2.20;;;12.60;99.90;;;;;;928946;150;27320;-79
2023/10/26 03:08:15;;;;;;;2.10;2.00;;;12.60;99.90;;;;;;927552;150;27421;-79
2023/10/26 03:10:42;;;;;;;2.20;2.10;;;12.60;99.90;;;;;;929234;150;27432;-79
2023/10/26 03:13:08;;;;;;;2.00;1.90;;;12.60;99.90;;;;;;927405;150;27383;-79
2023/10/26 03:15:35;;;;;;;2.33;2.23;;;12.60;99.90;;;;;;926878;150;27392;-76
2023/10/26 03:18:02;;;;;;;2.50;2.30;;;12.60;99.90;;;;;;930227;150;27327;-80
2023/10/26 03:20:28;;;;;;;2.43;2.23;;;12.60;99.90;;;;;;928755;150;27295;-79
2023/10/26 03:22:55;;;;;;;2.73;2.53;;;12.50;99.90;;;;;;926716;150;27412;-78
2023/10/26 03:25:21;;;;;;;3.73;2.27;;;12.50;99.90;;;;;;928913;150;27307;-77
2023/10/26 03:27:48;;;;;;;2.30;2.20;;;12.50;99.90;;;;;;928118;150;27427;-77
2023/10/26 03:30:15;;;;;;;3.57;2.57;;;12.50;99.90;;;;;;926908;150;27309;-77
2023/10/26 03:32:41;;;;;;;2.13;2.03;;;12.40;99.90;;;;;;929329;150;27445;-79
2023/10/26 03:35:08;;;;;;;2.33;2.13;;;12.50;99.90;;;;;;928523;150;27361;-78
2023/10/26 03:37:36;;;;;;;2.50;2.30;;;12.40;99.90;;;;;;927084;150;27357;-80
2023/10/26 03:40:01;;;;;;;2.60;2.40;;;12.40;99.90;;;;;;928213;150;27495;-78
2023/10/26 03:42:27;;;;;;;2.03;1.93;;;12.30;99.90;;;;;;906096;153;27375;-79
2023/10/26 03:44:54;;;;;;;3.13;2.27;;;12.30;99.90;;;;;;928731;150;27379;-79
2023/10/26 03:47:21;;;;;;;1.97;1.87;;;12.30;99.90;;;;;;926664;150;27440;-80
2023/10/26 03:49:51;;;;;;;2.20;2.10;;;12.20;99.90;;;;;;926277;150;27297;-79
2023/10/26 03:52:14;;;;;;;2.27;2.17;;;12.20;99.90;;;;;;927622;150;27376;-79
2023/10/26 03:54:40;;;;;;;2.70;2.20;;;12.10;99.90;;;;;;929121;150;28128;-76
2023/10/26 03:57:07;;;;;;;2.60;2.40;;;12.10;99.90;;;;;;927490;150;27406;-78
2023/10/26 03:59:34;;;;;;;3.17;2.23;;;12.00;99.90;;;;;;930789;150;27395;-79
2023/10/26 04:02:00;;;;;;;2.60;2.20;;;12.00;99.90;;;;;;927045;150;27491;-79
2023/10/26 04:04:27;;;;;;;2.30;2.20;;;12.00;99.90;;;;;;927084;150;27416;-79
2023/10/26 04:06:53;;;;;;;2.50;2.30;;;12.00;99.90;;;;;;928290;150;27343;-79
2023/10/26 04:09:20;;;;;;;2.77;2.50;;;11.90;99.90;;;;;;928846;153;27327;-79
2023/10/26 04:11:46;;;;;;;2.80;2.57;;;11.90;99.90;;;;;;928711;150;27304;-79
2023/10/26 04:14:13;;;;;;;2.57;2.47;;;11.90;99.90;;;;;;929633;150;27423;-79
2023/10/26 04:16:40;;;;;;;3.13;2.93;;;11.90;99.90;;;;;;931066;150;27416;-79
2023/10/26 04:19:06;;;;;;;3.20;2.90;;;11.90;99.90;;;;;;926993;150;27506;-79
2023/10/26 04:21:33;;;;;;;2.93;2.73;;;11.90;99.90;;;;;;928846;150;27394;-79
2023/10/26 04:23:59;;;;;;;3.03;2.67;;;11.90;99.90;;;;;;934275;149;27471;-79
2023/10/26 04:26:26;;;;;;;2.83;2.63;;;11.80;99.90;;;;;;939957;149;27282;-79
2023/10/26 04:28:53;;;;;;;2.80;2.50;;;11.80;99.90;;;;;;940076;149;27456;-78
2023/10/26 04:31:19;;;;;;;3.40;2.70;;;11.80;99.90;;;;;;939741;149;27374;-78
2023/10/26 04:33:46;;;;;;;2.63;2.43;;;11.80;99.90;;;;;;940662;148;27386;-77
2023/10/26 04:36:12;;;;;;;2.60;2.40;;;11.70;99.90;;;;;;941637;149;27355;-79
2023/10/26 04:38:39;;;;;;;2.60;2.40;;;11.70;99.90;;;;;;941258;149;27357;-79
2023/10/26 04:41:06;;;;;;;2.60;2.40;;;11.70;99.90;;;;;;937368;149;27276;-79
2023/10/26 04:43:32;;;;;;;3.43;2.40;;;11.60;99.90;;;;;;938075;149;27537;-80
2023/10/26 04:45:59;;;;;;;5.27;2.40;;;11.60;99.90;;;;;;941733;149;27380;-79
2023/10/26 04:48:25;;;;;;;2.90;2.70;;;11.60;99.90;;;;;;939359;149;27381;-76
2023/10/26 04:50:52;;;;;;;3.63;2.33;;;11.50;99.90;;;;;;939546;149;27429;-79
2023/10/26 04:53:18;;;;;;;2.57;2.37;;;11.50;99.90;;;;;;941599;149;27296;-78
2023/10/26 04:55:45;;;;;;;2.67;2.50;;;11.50;99.90;;;;;;940544;149;27298;-79
2023/10/26 04:58:12;;;;;;;3.07;2.87;;;11.50;99.90;;;;;;938377;149;27403;-79
2023/10/26 05:00:39;;;;;;;3.87;3.00;;;11.40;99.90;;;;;;938773;149;27309;-77
2023/10/26 05:03:05;;;;;;;2.10;2.00;;;11.40;99.90;;;;;;940895;149;27383;-79
2023/10/26 05:05:31;;;;;;;2.33;2.13;;;11.40;99.90;;;;;;941281;149;27282;-79
2023/10/26 05:07:58;;;;;;;1.80;1.70;;;11.40;99.90;;;;;;941628;148;27458;-79
2023/10/26 05:10:25;;;;;;;2.10;2.00;;;11.30;99.90;;;;;;940687;149;27325;-79
2023/10/26 05:12:52;;;;;;;3.80;2.40;;;11.30;99.90;;;;;;940215;149;27446;-79
2023/10/26 05:15:18;;;;;;;2.43;2.33;;;11.30;99.90;;;;;;940333;149;27353;-79
2023/10/26 05:17:44;;;;;;;2.23;2.13;;;11.20;99.90;;;;;;941462;149;27365;-79
2023/10/26 05:20:11;;;;;;;2.20;2.10;;;11.20;99.90;;;;;;941528;149;27327;-79
2023/10/26 05:22:38;;;;;;;2.13;2.03;;;11.20;99.90;;;;;;939699;149;27470;-79
2023/10/26 05:25:10;;;;;;;2.53;1.93;;;11.30;99.90;;;;;;940818;149;27337;-79
2023/10/26 05:27:33;;;;;;;2.33;2.00;;;11.30;99.90;;;;;;938899;149;27363;-77
2023/10/26 05:30:00;;;;;;;3.57;2.20;;;11.30;99.90;;;;;;939149;149;27432;-79
2023/10/26 05:32:26;;;;;;;2.00;1.90;;;11.40;99.90;;;;;;942469;149;27395;-78
2023/10/26 05:34:53;;;;;;;3.40;2.13;;;11.40;99.90;;;;;;940339;149;27355;-79
2023/10/26 05:37:20;;;;;;;2.20;2.03;;;11.50;99.90;;;;;;922363;151;27382;-79
2023/10/26 05:39:46;;;;;;;3.57;2.07;;;11.60;99.90;;;;;;922647;151;27342;-77
2023/10/26 05:42:13;;;;;;;1.90;1.80;;;11.60;99.90;;;;;;924727;151;27467;-76
2023/10/26 05:44:39;;;;;;;2.03;1.93;;;11.70;99.90;;;;;;939668;149;27473;-75
2023/10/26 05:47:06;;;;;;;1.77;1.67;;;11.70;99.90;;;;;;938236;149;27429;-76
2023/10/26 05:49:33;;;;;;;1.90;1.80;;;11.80;99.90;;;;;;923812;151;27344;-76
2023/10/26 05:52:01;;;;;;;2.17;2.07;;;11.80;99.90;;;;;;938699;149;27357;-76
2023/10/26 05:54:26;;;;;;;2.43;2.23;;;11.90;99.90;;;;;;920712;152;27357;-74
2023/10/26 05:56:52;;;;;;;3.53;1.80;;;11.90;99.90;;;;;;923211;151;27398;-75
2023/10/26 05:59:19;;;;;;;2.90;2.20;;;12.00;99.90;;;;;;924389;151;27361;-77
2023/10/26 06:01:46;;;;;;;2.17;2.07;;;12.00;99.90;;;;;;921552;152;27553;-74
2023/10/26 06:04:12;;;;;;;2.10;2.00;;;12.10;99.90;;;;;;939714;149;27471;-74
2023/10/26 06:06:39;;;;;;;2.47;2.20;;;12.10;99.90;;;;;;938279;149;27422;-75
2023/10/26 06:09:05;;;;;;;3.37;2.20;;;12.20;99.90;;;;;;922050;151;27460;-74
2023/10/26 06:11:32;;;;;;;2.10;1.90;;;12.20;99.90;;;;;;925707;151;27295;-74
2023/10/26 06:13:58;;;;;;;2.33;2.12;;;12.30;99.90;;;;;;922921;151;27696;-74
2023/10/26 06:16:25;;;;;;;1.47;1.40;;;12.30;99.90;;;;;;941650;148;27405;-74
2023/10/26 06:18:52;;;;;;;1.80;1.65;;;12.40;99.90;;;;;;923109;151;27527;-75
2023/10/26 06:21:19;;;;;;;1.80;1.57;;;12.40;99.90;;;;;;939005;149;27392;-74
2023/10/26 06:23:45;;;;;;;1.50;1.50;;;12.40;99.90;;;;;;920773;152;27356;-75
2023/10/26 06:26:11;;;;;;;2.03;1.60;;;12.50;99.90;;;;;;938840;148;27401;-74
2023/10/26 06:28:38;;;;;;;1.57;1.30;;;12.50;99.90;;;;;;923248;151;27439;-74
2023/10/26 06:31:11;;;;;;;1.57;1.47;;;12.50;99.90;;;;;;922940;151;27408;-75
2023/10/26 06:33:37;;;;;;;1.70;1.55;;;12.60;99.90;;;;;;919868;152;27488;-75
2023/10/26 06:36:04;;;;;;;2.00;1.70;;;12.60;99.90;;;;;;938352;149;27888;-75
2023/10/26 06:38:31;;;;;;;1.60;1.50;;;12.60;99.90;;;;;;939677;149;27362;-74
2023/10/26 06:40:57;;;;;;;2.20;1.80;;;12.70;99.90;;;;;;941176;149;27420;-74
2023/10/26 06:43:24;;;;;;;1.72;1.62;;;12.70;99.90;;;;;;940771;148;27455;-76
2023/10/26 06:45:50;;;;;;;1.60;1.50;;;12.80;99.90;;;;;;921212;151;27449;-74
2023/10/26 06:48:20;;;;;;;1.57;1.47;;;12.80;99.90;;;;;;922259;152;27372;-76
2023/10/26 06:50:44;;;;;;;3.83;1.40;;;12.80;99.90;;;;;;936468;148;27918;-73
2023/10/26 06:53:10;;;;;;;1.57;1.40;;;12.90;99.90;;;;;;939582;149;27321;-77
2023/10/26 06:55:37;;;;;;;1.60;1.50;;;12.90;99.90;;;;;;941623;149;27822;-76
2023/10/26 06:58:04;;;;;;;1.97;1.33;;;12.90;99.90;;;;;;939309;149;27315;-76
2023/10/26 07:00:30;;;;;;;1.50;1.40;;;13.00;99.90;;;;;;938461;149;27348;-76
2023/10/26 07:02:56;;;;;;;1.60;1.50;;;13.00;99.90;;;;;;939964;149;28020;-81
2023/10/26 07:05:23;;;;;;;1.40;1.30;;;13.10;99.90;;;;;;938213;149;27261;-79
2023/10/26 07:07:50;;;;;;;2.67;1.40;;;13.20;99.90;;;;;;933417;150;27381;-80
2023/10/26 07:10:18;;;;;;;1.32;1.10;;;13.20;99.90;;;;;;938844;149;27325;-80
2023/10/26 07:12:43;;;;;;;1.10;1.10;;;13.30;99.90;;;;;;938195;149;27318;-80
2023/10/26 07:15:09;;;;;;;0.90;0.90;;;13.30;99.90;;;;;;938762;149;27395;-79
2023/10/26 07:17:36;;;;;;;1.02;1.00;;;13.40;99.90;;;;;;941090;149;27383;-81
2023/10/26 07:20:03;;;;;;;1.20;1.20;;;13.50;99.90;;;;;;937996;149;27399;-79
2023/10/26 07:22:29;;;;;;;1.05;1.05;;;13.50;99.90;;;;;;939241;149;27453;-80
2023/10/26 07:24:56;;;;;;;1.35;1.35;;;13.60;99.90;;;;;;938028;149;27369;-79
2023/10/26 07:27:23;;;;;;;1.65;1.55;;;13.70;99.90;;;;;;938105;149;27484;-81
2023/10/26 07:29:49;;;;;;;1.60;1.50;;;13.80;99.90;;;;;;938857;149;27369;-81
2023/10/26 07:32:16;;;;;;;1.52;1.42;;;13.90;99.90;;;;;;938981;149;27408;-80
2023/10/26 07:34:42;;;;;;;1.65;1.50;;;14.00;99.90;;;;;;938191;151;27465;-80
2023/10/26 07:37:09;;;;;;;1.55;1.17;;;14.10;99.90;;;;;;939206;149;27372;-80
2023/10/26 07:39:35;;;;;;;1.25;1.20;;;14.20;99.90;;;;;;939613;148;27421;-79
2023/10/26 07:42:02;;;;;;;1.50;1.37;;;14.30;99.90;;;;;;937922;149;27879;-81
2023/10/26 07:44:30;;;;;;;2.05;1.65;;;14.30;99.90;;;;;;937060;149;27416;-80
2023/10/26 07:46:55;;;;;;;5.72;5.03;;;14.40;99.90;;;;;;925181;151;27407;-79
2023/10/26 07:49:22;;;;;;;3.10;2.90;;;14.40;99.90;;;;;;939108;151;27323;-80
2023/10/26 07:51:49;;;;;;;5.08;2.55;;;14.50;99.90;;;;;;938963;149;27372;-80
2023/10/26 07:54:15;;;;;;;4.65;4.25;;;14.60;99.90;;;;;;938672;149;27473;-80
2023/10/26 07:56:41;;;;;;;1.98;1.87;;;14.60;99.90;;;;;;940131;148;27406;-80
2023/10/26 07:59:08;;;;;;;2.95;2.75;;;14.70;99.90;;;;;;937804;149;27438;-77
2023/10/26 08:01:35;;;;;;;2.27;2.17;;;14.90;99.90;;;;;;939537;149;27925;-81
2023/10/26 08:04:01;;;;;;;1.92;1.82;;;15.10;99.90;;;;;;938368;149;27447;-81
2023/10/26 08:06:28;;;;;;;1.90;1.80;;;15.30;99.90;;;;;;940138;149;27327;-80
2023/10/26 08:08:56;;;;;;;1.60;1.50;;;15.50;99.90;;;;;;941453;149;27321;-79
2023/10/26 08:11:23;;;;;;;1.30;1.30;;;15.70;99.90;;;;;;938130;149;27295;-80
2023/10/26 08:13:48;;;;;;;3.37;1.95;;;16.00;99.90;;;;;;938660;148;27466;-77
2023/10/26 08:16:15;;;;;;;2.12;1.40;;;16.40;99.90;;;;;;940451;149;27373;-78
2023/10/26 08:18:42;;;;;;;1.32;1.22;;;16.90;99.90;;;;;;929519;151;27303;-77
2023/10/26 08:21:07;;;;;;;1.15;1.07;;;17.50;99.90;;;;;;939811;149;27354;-78
2023/10/26 08:23:34;;;;;;;1.30;1.20;;;18.20;99.90;;;;;;925546;151;27334;-78
2023/10/26 08:26:07;;;;;;;2.15;1.32;;;18.90;99.90;;;;;;926498;151;27382;-78
2023/10/26 08:28:33;;;;;;;1.35;1.22;;;19.60;99.90;;;;;;920475;152;27292;-78
2023/10/26 08:31:02;;;;;;;0.95;0.95;;;20.30;99.90;;;;;;939168;149;27469;-78
2023/10/26 08:33:26;;;;;;;0.93;0.93;;;21.00;99.90;;;;;;936581;149;27374;-78
2023/10/26 08:35:53;;;;;;;1.10;1.10;;;21.50;99.90;;;;;;938622;149;27374;-78
2023/10/26 08:38:20;;;;;;;1.07;1.07;;;22.00;99.90;;;;;;926997;151;27295;-78
2023/10/26 08:40:52;;;;;;;0.82;0.82;;;22.40;99.90;;;;;;923074;151;27394;-78
2023/10/26 08:43:18;;;;;;;1.05;1.05;;;22.60;99.90;;;;;;939946;149;27489;-78
2023/10/26 08:45:47;;;;;;;1.12;1.00;;;22.70;99.90;;;;;;938700;149;27375;-78
2023/10/26 08:48:20;;;;;;;0.95;0.95;;;22.70;99.90;;;;;;939450;149;27342;-78
2023/10/26 08:50:46;;;;;;;1.17;1.02;;;22.60;99.90;;;;;;935744;149;27472;-78
2023/10/26 08:53:13;;;;;;;1.40;0.98;;;22.40;99.90;;;;;;940465;149;27350;-78
2023/10/26 08:55:39;;;;;;;1.10;1.00;;;22.30;99.90;;;;;;939024;149;27365;-78
2023/10/26 08:58:06;;;;;;;3.65;1.60;;;22.10;99.90;;;;;;938448;149;27369;-78
2023/10/26 09:00:33;;;;;;;1.40;1.30;;;21.80;99.90;;;;;;940159;149;27301;-78
2023/10/26 09:02:59;;;;;;;1.07;1.07;;;21.60;99.90;;;;;;938257;149;27316;-78
2023/10/26 09:05:26;;;;;;;1.25;1.20;;;21.40;99.90;;;;;;940903;148;27355;-78
2023/10/26 09:07:52;;;;;;;1.00;1.00;;;21.10;99.90;;;;;;938379;149;27317;-78
2023/10/26 09:10:31;;;;;;;1.70;1.10;;;20.80;99.60;;;;;;936567;149;27301;-78
2023/10/26 09:12:58;;;;;;;0.95;0.95;;;20.40;99.30;;;;;;938265;149;27333;-76
2023/10/26 09:15:24;;;;;;;1.55;1.20;;;20.10;99.70;;;;;;938338;149;27342;-77
2023/10/26 09:17:53;;;;;;;1.40;1.22;;;19.80;99.90;;;;;;939418;148;27406;-76
2023/10/26 09:20:20;;;;;;;1.57;1.47;;;19.50;99.90;;;;;;938788;149;27353;-76
2023/10/26 09:22:44;;;;;;;1.35;1.25;;;19.30;99.90;;;;;;938707;149;27309;-77
2023/10/26 09:25:11;;;;;;;1.00;1.00;;;19.20;99.90;;;;;;926863;151;27428;-77
2023/10/26 09:27:37;;;;;;;1.22;1.12;;;19.10;99.90;;;;;;917566;153;27478;-77
2023/10/26 09:30:04;;;;;;;1.00;1.00;;;19.00;99.90;;;;;;925635;150;27317;-77
2023/10/26 09:32:33;;;;;;;1.27;1.20;;;19.00;99.90;;;;;;928659;150;27308;-77
2023/10/26 09:35:00;;;;;;;1.22;1.20;;;18.90;99.90;;;;;;925882;150;27355;-77
2023/10/26 09:37:26;;;;;;;1.35;1.25;;;18.80;99.90;;;;;;918904;151;27395;-77
2023/10/26 09:39:53;;;;;;;1.20;1.20;;;18.70;99.90;;;;;;926052;150;27426;-77
2023/10/26 09:42:22;;;;;;;2.22;1.40;;;18.60;99.90;;;;;;925438;150;27400;-77
2023/10/26 09:44:49;;;;;;;1.27;1.27;;;18.60;99.90;;;;;;927573;150;27379;-77
2023/10/26 09:47:16;;;;;;;1.45;1.27;;;18.60;99.90;;;;;;925905;150;27300;-78
2023/10/26 09:49:42;;;;;;;1.45;1.40;;;18.50;99.90;;;;;;928570;152;27448;-77
2023/10/26 09:52:09;;;;;;;1.42;1.37;;;18.50;99.90;;;;;;925814;150;27353;-78
2023/10/26 09:54:35;;;;;;;1.37;1.27;;;18.50;99.90;;;;;;926414;150;27325;-78
2023/10/26 09:57:07;;;;;;;1.15;1.10;;;18.50;99.90;;;;;;926039;150;27300;-78
2023/10/26 09:59:34;;;;;;;0.90;0.90;;;18.50;99.90;;;;;;925188;150;27366;-78
2023/10/26 10:02:01;;;;;;;1.40;1.30;;;18.50;99.90;;;;;;925733;150;27321;-78
2023/10/26 10:04:37;;;;;;;2.02;1.35;;;18.60;99.90;;;;;;924073;150;27338;-78
2023/10/26 10:07:03;;;;;;;1.00;1.00;;;18.60;99.90;;;;;;929768;150;27422;-78
2023/10/26 10:09:29;;;;;;;1.35;1.25;;;18.60;99.90;;;;;;926441;150;27343;-78
2023/10/26 10:12:05;;;;;;;0.98;0.95;;;18.60;99.90;;;;;;927941;150;27376;-78
2023/10/26 10:14:47;;;;;;;0.90;0.90;;;18.60;99.90;;;;;;927520;150;27438;-78
2023/10/26 10:17:16;;;;;;;1.02;1.02;;;18.70;99.90;;;;;;929599;150;27492;-78
2023/10/26 10:19:43;;;;;;;1.32;1.20;;;18.70;99.90;;;;;;925830;150;27434;-78
2023/10/26 10:22:40;;;;;;;1.02;0.95;;;18.70;99.90;;;;;;925540;150;27484;-78
2023/10/26 10:25:09;;;;;;;0.90;0.90;;;18.70;99.90;;;;;;924565;150;27413;-76
2023/10/26 10:27:33;;;;;;;2.02;1.05;;;18.70;99.90;;;;;;926959;150;27388;-76
2023/10/26 10:29:59;;;;;;;0.88;0.85;;;18.60;99.90;;;;;;924901;150;27300;-77
2023/10/26 10:32:44;;;;;;;0.70;0.70;;;18.60;99.90;;;;;;904968;153;27469;-76
2023/10/26 10:35:10;;;;;;;0.70;0.70;;;18.50;99.90;;;;;;918408;152;27402;-78
2023/10/26 10:37:37;;;;;;;0.82;0.82;;;18.40;99.90;;;;;;908879;152;27423;-78
2023/10/26 10:40:16;;;;;;;0.85;0.72;;;18.40;99.90;;;;;;926945;150;27442;-78
2023/10/26 10:42:48;;;;;;;1.40;1.30;;;18.40;99.90;;;;;;927244;150;27522;-78
2023/10/26 10:45:14;;;;;;;0.78;0.78;;;18.40;99.90;;;;;;925815;150;28331;-78
2023/10/26 10:47:41;;;;;;;0.98;0.98;;;18.40;99.90;;;;;;926493;150;27354;-78
2023/10/26 10:50:19;;;;;;;1.22;0.90;;;18.40;99.90;;;;;;910949;152;27473;-78
2023/10/26 10:52:47;;;;;;;0.70;0.70;;;18.40;99.90;;;;;;926171;150;27407;-78
2023/10/26 10:55:12;;;;;;;0.80;0.80;;;18.40;99.90;;;;;;927737;150;27348;-78
2023/10/26 10:57:57;;;;;;;0.60;0.60;;;18.40;99.80;;;;;;909981;152;27394;-78
2023/10/26 11:00:27;;;;;;;1.35;0.70;;;18.40;99.60;;;;;;912375;152;27403;-77
2023/10/26 11:02:56;;;;;;;0.98;0.90;;;18.40;99.40;;;;;;903274;153;27316;-77
2023/10/26 11:05:20;;;;;;;0.80;0.80;;;18.30;99.00;;;;;;927282;150;27329;-77
2023/10/26 11:07:47;;;;;;;0.60;0.60;;;18.30;98.80;;;;;;910809;152;27380;-77
2023/10/26 11:10:13;;;;;;;0.80;0.80;;;18.30;98.70;;;;;;910445;152;27412;-77
2023/10/26 11:12:40;;;;;;;1.50;0.78;;;18.20;99.00;;;;;;922999;149;27510;-77
2023/10/26 11:15:07;;;;;;;1.30;0.70;;;18.20;99.10;;;;;;927826;150;27384;-78
2023/10/26 11:17:33;;;;;;;0.78;0.78;;;18.10;98.80;;;;;;912670;152;27284;-77
2023/10/26 11:19:59;;;;;;;0.62;0.60;;;18.10;98.70;;;;;;905785;153;27317;-77
2023/10/26 11:22:27;;;;;;;0.42;0.37;;;18.00;99.00;;;;;;919014;151;27359;-77
2023/10/26 11:24:53;;;;;;;3.85;0.98;;;18.00;99.20;;;;;;922203;151;27431;-78
2023/10/26 11:27:19;;;;;;;1.00;0.78;;;18.00;99.10;;;;;;921764;151;27387;-77
2023/10/26 11:29:46;;;;;;;0.50;0.50;;;17.90;99.10;;;;;;919535;151;27408;-77
2023/10/26 11:32:22;;;;;;;0.80;0.80;;;17.90;99.20;;;;;;921093;154;27455;-77
2023/10/26 11:35:09;;;;;;;0.70;0.70;;;17.90;99.40;;;;;;915268;155;27415;-75
2023/10/26 11:37:36;;;;;;;0.42;0.40;;;17.80;99.30;;;;;;915878;153;27429;-77
2023/10/26 11:40:02;;;;;;;0.60;0.60;;;17.80;99.60;;;;;;914199;152;27374;-73
2023/10/26 11:42:56;;;;;;;3.75;1.00;;;17.80;99.10;;;;;;915556;152;27499;-73
2023/10/26 11:45:23;;;;;;;1.02;0.85;;;17.70;99.00;;;;;;916706;152;27333;-75
2023/10/26 11:48:01;;;;;;;1.22;0.70;;;17.70;99.20;;;;;;914927;152;27405;-76
2023/10/26 11:50:27;;;;;;;0.70;0.70;;;17.60;99.10;;;;;;922059;151;27350;-76
2023/10/26 11:52:54;;;;;;;1.27;0.70;;;17.60;99.40;;;;;;916845;152;27418;-75
2023/10/26 11:55:21;;;;;;;1.85;0.90;;;17.60;99.90;;;;;;915837;155;27367;-76
2023/10/26 11:57:47;;;;;;;1.10;0.70;;;17.60;99.90;;;;;;914489;155;27314;-76
2023/10/26 12:00:14;;;;;;;1.10;1.00;;;17.60;99.90;;;;;;915222;155;27386;-76
2023/10/26 12:02:40;;;;;;;1.17;0.72;;;17.60;99.90;;;;;;911821;153;27316;-76
2023/10/26 12:07:39;;;;;;;1.00;0.78;;;17.70;99.90;;;;;;971471;145;39185;-75
2023/10/26 12:10:06;;;;;;;1.30;1.20;;;17.80;99.90;;;;;;958689;148;27376;-75
2023/10/26 12:12:32;;;;;;;1.30;1.20;;;17.80;99.90;;;;;;956739;148;27270;-75
2023/10/26 12:14:59;;;;;;;1.30;1.20;;;17.90;99.90;;;;;;955690;148;27346;-75
2023/10/26 12:17:25;;;;;;;1.90;1.30;;;18.00;99.90;;;;;;957424;148;27276;-75
2023/10/26 12:19:52;;;;;;;1.20;1.20;;;18.00;99.70;;;;;;955788;148;27369;-75
2023/10/26 12:22:19;;;;;;;1.20;1.20;;;18.00;99.50;;;;;;954602;148;27398;-75
2023/10/26 12:24:45;;;;;;;0.90;0.90;;;18.00;99.20;;;;;;959147;148;27294;-75
2023/10/26 12:27:16;;;;;;;1.17;1.15;;;18.00;99.00;;;;;;956286;148;27276;-75
2023/10/26 12:29:38;;;;;;;1.37;1.27;;;18.00;99.20;;;;;;951896;147;27407;-75
2023/10/26 12:32:05;;;;;;;0.85;0.85;;;18.00;99.30;;;;;;953105;148;27287;-76
2023/10/26 12:34:33;;;;;;;1.50;1.20;;;18.00;99.30;;;;;;954706;147;27282;-75
2023/10/26 12:36:58;;;;;;;0.98;0.90;;;17.90;99.90;;;;;;952908;148;27781;-74
2023/10/26 12:39:25;;;;;;;1.35;1.25;;;17.80;99.90;;;;;;953312;148;27392;-75
2023/10/26 12:41:51;;;;;;;1.25;1.25;;;17.80;99.90;;;;;;950260;147;27357;-75
2023/10/26 12:44:20;;;;;;;1.40;1.30;;;17.70;99.90;;;;;;938224;149;27325;-77
2023/10/26 12:46:44;;;;;;;1.50;1.40;;;17.70;99.90;;;;;;937987;149;27411;-76
2023/10/26 12:49:11;;;;;;;1.70;1.60;;;17.60;99.90;;;;;;939168;149;27422;-76